createdAt,value
2023-04-21T00:00:54.891Z,100201.13
2023-04-21T00:03:23.851Z,100191.69
2023-04-21T00:05:51.074Z,100183.59
2023-04-21T00:08:18.586Z,100176.25
2023-04-21T00:10:46.804Z,100159.84
2023-04-21T00:13:14.287Z,100151.94
2023-04-21T00:15:41.171Z,100140.50
2023-04-21T00:18:08.205Z,100140.00
2023-04-21T00:20:35.051Z,100124.59
2023-04-21T00:23:01.863Z,100113.50
2023-04-21T00:25:28.515Z,100101.94
2023-04-21T00:27:55.339Z,100092.22
2023-04-21T00:30:22.013Z,100074.53
2023-04-21T00:32:48.673Z,100063.56
2023-04-21T00:35:15.492Z,100071.34
2023-04-21T00:37:42.225Z,100062.72
2023-04-21T00:40:11.719Z,100055.38
2023-04-21T00:42:40.086Z,100049.88
2023-04-21T00:45:07.168Z,100041.69
2023-04-21T00:47:33.917Z,100033.97
2023-04-21T00:50:00.779Z,100026.44
2023-04-21T00:52:28.381Z,100027.56
2023-04-21T00:54:55.250Z,100031.13
2023-04-21T00:57:22.014Z,100033.75
2023-04-21T00:59:49.881Z,100034.31
2023-04-21T01:02:18.129Z,100030.75
2023-04-21T01:04:45.777Z,100028.44
2023-04-21T01:07:12.829Z,100030.72
2023-04-21T01:09:39.685Z,100025.13
2023-04-21T01:12:10.603Z,100021.72
2023-04-21T01:14:38.758Z,100032.63
2023-04-21T01:17:06.117Z,100026.66
2023-04-21T01:19:34.776Z,100031.91
2023-04-21T01:22:06.445Z,100022.44
2023-04-21T01:24:40.450Z,100023.94
2023-04-21T01:27:19.244Z,100019.56
2023-04-21T01:29:49.191Z,100025.81
2023-04-21T01:32:18.474Z,100014.19
2023-04-21T01:34:46.315Z,100010.22
2023-04-21T01:37:15.796Z,100003.81
2023-04-21T01:39:44.264Z,100007.63
2023-04-21T01:42:12.010Z,100004.47
2023-04-21T01:44:39.438Z,99998.00
2023-04-21T01:47:06.927Z,99993.53
2023-04-21T01:49:33.517Z,99999.50
2023-04-21T01:52:00.193Z,99994.13
2023-04-21T01:54:26.905Z,100001.41
2023-04-21T01:56:53.733Z,99993.53
2023-04-21T01:59:21.079Z,99997.63
2023-04-21T02:01:47.967Z,99994.72
2023-04-21T02:04:14.750Z,99999.59
2023-04-21T02:06:41.551Z,99990.22
2023-04-21T02:09:08.163Z,99987.31
2023-04-21T02:11:35.035Z,99988.31
2023-04-21T02:14:01.752Z,99987.84
2023-04-21T02:16:28.538Z,99988.00
2023-04-21T02:18:59.877Z,99983.22
2023-04-21T02:21:27.775Z,99980.50
2023-04-21T02:23:54.662Z,99977.03
2023-04-21T02:26:21.363Z,99969.25
2023-04-21T02:28:48.210Z,99958.59
2023-04-21T02:31:16.216Z,99964.38
2023-04-21T02:33:42.926Z,99967.53
2023-04-21T02:36:11.439Z,99964.13
2023-04-21T02:38:38.059Z,99961.44
2023-04-21T02:41:04.710Z,99962.56
2023-04-21T02:43:31.343Z,99965.13
2023-04-21T02:45:58.564Z,99956.78
2023-04-21T02:48:25.487Z,99960.34
2023-04-21T02:50:53.450Z,99958.53
2023-04-21T02:53:20.898Z,99959.16
2023-04-21T02:55:47.589Z,99949.44
2023-04-21T02:58:14.276Z,99952.09
2023-04-21T03:00:41.733Z,99960.44
2023-04-21T03:03:08.682Z,99958.59
2023-04-21T03:05:35.825Z,99951.34
2023-04-21T03:08:02.446Z,99958.44
2023-04-21T03:10:29.025Z,99948.97
2023-04-21T03:12:56.376Z,99949.16
2023-04-21T03:15:26.212Z,99952.28
2023-04-21T03:17:53.672Z,100401.31
2023-04-21T03:20:23.568Z,100397.34
2023-04-21T03:22:50.208Z,100401.00
2023-04-21T03:25:16.802Z,100411.84
2023-04-21T03:27:43.535Z,100409.47
2023-04-21T03:30:12.699Z,100412.81
2023-04-21T03:32:39.419Z,100418.41
2023-04-21T03:35:06.283Z,100423.06
2023-04-21T03:37:33.659Z,100418.72
2023-04-21T03:40:01.109Z,100418.66
2023-04-21T03:42:31.249Z,100422.19
2023-04-21T03:45:04.789Z,100415.13
2023-04-21T03:47:33.639Z,100417.59
2023-04-21T03:50:03.208Z,100413.81
2023-04-21T03:52:29.867Z,100417.19
2023-04-21T03:54:56.461Z,100413.53
2023-04-21T03:57:23.068Z,100383.31
2023-04-21T03:59:49.700Z,100379.34
2023-04-21T04:02:18.745Z,100373.66
2023-04-21T04:04:45.628Z,100372.78
2023-04-21T04:07:12.301Z,100360.78
2023-04-21T04:09:38.912Z,100362.19
2023-04-21T04:12:05.660Z,100350.69
2023-04-21T04:14:32.296Z,100359.97
2023-04-21T04:16:59.259Z,100361.63
2023-04-21T04:19:31.576Z,100355.81
2023-04-21T04:21:59.928Z,100358.81
2023-04-21T04:24:26.823Z,100353.63
2023-04-21T04:26:54.931Z,100351.91
2023-04-21T04:29:22.722Z,100348.97
2023-04-21T04:31:50.798Z,100353.00
2023-04-21T04:34:17.883Z,100361.03
2023-04-21T04:36:45.184Z,100359.84
2023-04-21T04:39:12.431Z,100367.13
2023-04-21T04:41:39.531Z,100366.25
2023-04-21T04:44:06.269Z,100356.94
2023-04-21T04:46:33.112Z,100366.97
2023-04-21T04:49:03.118Z,100361.28
2023-04-21T04:51:30.231Z,100352.91
2023-04-21T04:53:56.848Z,100350.84
2023-04-21T04:56:23.593Z,100339.50
2023-04-21T04:58:50.244Z,100330.72
2023-04-21T05:01:17.543Z,100330.47
2023-04-21T05:03:45.518Z,100327.66
2023-04-21T05:06:13.972Z,100315.06
2023-04-21T05:08:41.513Z,100309.19
2023-04-21T05:11:08.522Z,100309.53
2023-04-21T05:13:36.051Z,100303.91
2023-04-21T05:16:04.569Z,100303.28
2023-04-21T05:18:33.407Z,100301.97
2023-04-21T05:21:00.040Z,100301.84
2023-04-21T05:23:26.858Z,100295.75
2023-04-21T05:25:53.553Z,100290.88
2023-04-21T05:28:20.263Z,100295.19
2023-04-21T05:30:46.859Z,100285.16
2023-04-21T05:33:13.502Z,100294.44
2023-04-21T05:35:40.497Z,100293.94
2023-04-21T05:38:07.246Z,100294.81
2023-04-21T05:40:33.947Z,100291.31
2023-04-21T05:43:00.584Z,100291.31
2023-04-21T05:45:29.761Z,100298.13
2023-04-21T05:47:56.453Z,100302.25
2023-04-21T05:50:23.245Z,100312.97
2023-04-21T05:52:49.910Z,100307.00
2023-04-21T05:55:16.503Z,100309.50
2023-04-21T05:57:43.158Z,100309.69
2023-04-21T06:00:10.535Z,100311.69
2023-04-21T06:02:38.880Z,100314.13
2023-04-21T06:05:06.392Z,100308.81
2023-04-21T06:07:33.182Z,100315.06
2023-04-21T06:09:59.883Z,100316.09
2023-04-21T06:12:26.574Z,100318.75
2023-04-21T06:14:57.403Z,100318.94
2023-04-21T06:17:24.356Z,100326.75
2023-04-21T06:19:53.261Z,100329.53
2023-04-21T06:22:20.962Z,100333.91
2023-04-21T06:24:47.906Z,100327.78
2023-04-21T06:27:15.031Z,100341.78
2023-04-21T06:29:45.064Z,100336.84
2023-04-21T06:32:12.646Z,100331.97
2023-04-21T06:34:39.621Z,100327.41
2023-04-21T06:37:06.277Z,100319.38
2023-04-21T06:39:33.045Z,100331.56
2023-04-21T06:41:59.766Z,100328.22
2023-04-21T06:44:26.911Z,100326.59
2023-04-21T06:46:53.721Z,100322.38
2023-04-21T06:49:22.014Z,100314.06
2023-04-21T06:51:53.416Z,100320.28
2023-04-21T06:54:22.085Z,100323.31
2023-04-21T06:56:51.306Z,100323.06
2023-04-21T06:59:18.146Z,100314.81
2023-04-21T07:01:44.990Z,100310.88
2023-04-21T07:04:11.650Z,100309.16
2023-04-21T07:06:38.268Z,100305.59
2023-04-21T07:09:05.856Z,100309.59
2023-04-21T07:11:34.777Z,100296.44
2023-04-21T07:14:02.480Z,100298.75
2023-04-21T07:16:30.168Z,100302.84
2023-04-21T07:18:56.960Z,100306.34
2023-04-21T07:21:23.645Z,100293.22
2023-04-21T07:23:58.542Z,100296.41
2023-04-21T07:26:25.255Z,100293.75
2023-04-21T07:28:52.861Z,100292.59
2023-04-21T07:31:26.320Z,100287.44
2023-04-21T07:33:53.091Z,100291.72
2023-04-21T07:36:19.856Z,100108.41
2023-04-21T07:38:46.653Z,100116.69
2023-04-21T07:41:14.131Z,100127.34
2023-04-21T07:43:43.349Z,100138.88
2023-04-21T07:46:10.000Z,100138.03
2023-04-21T07:48:36.707Z,100130.22
2023-04-21T07:51:03.593Z,100128.97
2023-04-21T07:53:32.841Z,100135.50
2023-04-21T07:55:59.564Z,100143.69
2023-04-21T07:58:26.354Z,100143.84
2023-04-21T08:00:53.078Z,100144.19
2023-04-21T08:03:21.452Z,100135.31
2023-04-21T08:05:49.876Z,100153.44
2023-04-21T08:08:20.495Z,100156.47
2023-04-21T08:10:47.289Z,100158.63
2023-04-21T08:13:13.965Z,100150.34
2023-04-21T08:15:40.712Z,100152.09
2023-04-21T08:18:08.505Z,100140.97
2023-04-21T08:20:37.587Z,100145.28
2023-04-21T08:23:04.286Z,100138.94
2023-04-21T08:25:31.347Z,100144.91
2023-04-21T08:27:58.074Z,100142.00
2023-04-21T08:30:27.138Z,100144.44
2023-04-21T08:32:56.317Z,100143.59
2023-04-21T08:35:22.991Z,100144.59
2023-04-21T08:37:51.009Z,100129.91
2023-04-21T08:40:22.676Z,100142.09
2023-04-21T08:42:51.735Z,100142.91
2023-04-21T08:45:18.645Z,100150.28
2023-04-21T08:47:45.950Z,100149.38
2023-04-21T08:50:14.585Z,100146.09
2023-04-21T08:52:44.801Z,100151.94
2023-04-21T08:55:14.163Z,100155.03
2023-04-21T08:57:44.748Z,100157.47
2023-04-21T09:00:14.194Z,100156.53
2023-04-21T09:03:01.430Z,100158.78
2023-04-21T09:05:33.965Z,100165.09
2023-04-21T09:08:13.235Z,100160.88
2023-04-21T09:10:46.909Z,100160.72
2023-04-21T09:13:14.093Z,100160.03
2023-04-21T09:15:41.718Z,100166.84
2023-04-21T09:18:14.196Z,100168.34
2023-04-21T09:20:44.104Z,100172.72
2023-04-21T09:23:11.485Z,100168.56
2023-04-21T09:25:40.157Z,100168.09
2023-04-21T09:28:13.925Z,100161.28
2023-04-21T09:30:42.731Z,100159.81
2023-04-21T09:33:29.117Z,100163.00
2023-04-21T09:36:01.315Z,100160.88
2023-04-21T09:38:27.968Z,100149.44
2023-04-21T09:40:58.878Z,100154.72
2023-04-21T09:43:26.140Z,100155.25
2023-04-21T09:45:53.962Z,100150.75
2023-04-21T09:48:22.650Z,100165.34
2023-04-21T09:53:21.956Z,100144.22
2023-04-21T09:55:50.443Z,100159.94
2023-04-21T09:58:20.758Z,100160.19
2023-04-21T10:00:47.789Z,100154.88
2023-04-21T10:03:17.521Z,100155.06
2023-04-21T10:05:50.914Z,100161.88
2023-04-21T10:08:17.837Z,100153.84
2023-04-21T10:10:46.962Z,100157.13
2023-04-21T10:13:22.720Z,100143.94
2023-04-21T10:15:49.570Z,100146.94
2023-04-21T10:18:21.804Z,100164.81
2023-04-21T10:20:56.579Z,100156.63
2023-04-21T10:23:35.893Z,100149.47
2023-04-21T10:26:27.124Z,100150.88
2023-04-21T10:29:02.923Z,100145.41
2023-04-21T10:31:47.823Z,100145.34
2023-04-21T10:34:15.111Z,100150.19
2023-04-21T10:36:53.977Z,100142.31
2023-04-21T10:39:33.585Z,100141.09
2023-04-21T10:42:12.737Z,100122.06
2023-04-21T10:44:43.097Z,100140.72
2023-04-21T10:47:12.792Z,100131.38
2023-04-21T10:49:40.429Z,100110.19
2023-04-21T10:52:10.760Z,100127.50
2023-04-21T10:54:45.921Z,100123.91
2023-04-21T10:57:21.910Z,100114.31
2023-04-21T10:59:51.916Z,100117.31
2023-04-21T11:02:19.259Z,100119.44
2023-04-21T11:04:51.384Z,100109.16
2023-04-21T11:07:18.993Z,100109.72
2023-04-21T11:09:47.815Z,100108.94
2023-04-21T11:12:19.464Z,100105.00
2023-04-21T11:14:50.811Z,100102.78
2023-04-21T11:17:19.444Z,100104.44
2023-04-21T11:19:47.130Z,100108.22
2023-04-21T11:22:13.968Z,100116.97
2023-04-21T11:24:45.528Z,100119.44
2023-04-21T11:27:14.305Z,100110.63
2023-04-21T11:29:41.843Z,100102.91
2023-04-21T11:32:09.445Z,100106.66
2023-04-21T11:34:42.239Z,100098.94
2023-04-21T11:37:35.777Z,100099.97
2023-04-21T11:40:07.047Z,100091.72
2023-04-21T11:42:33.687Z,100098.06
2023-04-21T11:45:01.070Z,100084.69
2023-04-21T11:47:28.713Z,100081.25
2023-04-21T11:49:57.156Z,100092.78
2023-04-21T11:52:28.756Z,100067.97
2023-04-21T11:55:08.310Z,100079.00
2023-04-21T11:57:36.423Z,100079.47
2023-04-21T12:00:06.652Z,100073.69
2023-04-21T12:02:33.922Z,100075.78
2023-04-21T12:05:04.031Z,100078.69
2023-04-21T12:07:36.148Z,100069.25
2023-04-21T12:10:12.911Z,100064.84
2023-04-21T12:12:40.524Z,100066.78
2023-04-21T12:15:08.575Z,100060.22
2023-04-21T12:17:38.446Z,100090.81
2023-04-21T12:20:07.052Z,100065.19
2023-04-21T12:22:33.833Z,100059.81
2023-04-21T12:25:00.560Z,100072.66
2023-04-21T12:27:27.759Z,100055.00
2023-04-21T12:29:54.554Z,100066.53
2023-04-21T12:32:21.529Z,100050.47
2023-04-21T12:34:48.275Z,100052.13
2023-04-21T12:37:15.034Z,100043.38
2023-04-21T12:39:44.478Z,100053.69
2023-04-21T12:42:11.298Z,100052.78
2023-04-21T12:44:38.740Z,100048.97
2023-04-21T12:47:05.509Z,100039.25
2023-04-21T12:49:32.460Z,100033.25
2023-04-21T12:51:59.628Z,100026.19
2023-04-21T12:54:26.335Z,100029.22
2023-04-21T12:56:52.994Z,100035.41
2023-04-21T12:59:27.064Z,100026.81
2023-04-21T13:01:54.939Z,100036.25
2023-04-21T13:04:22.022Z,100030.63
2023-04-21T13:06:54.691Z,100023.25
2023-04-21T13:09:21.368Z,100023.50
2023-04-21T13:11:47.998Z,100018.41
2023-04-21T13:14:15.872Z,100011.28
2023-04-21T13:16:43.341Z,100014.59
2023-04-21T13:19:12.427Z,100013.28
2023-04-21T13:21:39.121Z,100007.00
2023-04-21T13:24:06.027Z,100019.81
2023-04-21T13:26:36.026Z,100002.66
2023-04-21T13:29:03.983Z,100006.47
2023-04-21T13:31:30.906Z,99999.16
2023-04-21T13:33:59.580Z,99995.94
2023-04-21T13:36:26.966Z,100007.81
2023-04-21T13:38:56.629Z,99998.72
2023-04-21T13:41:23.318Z,99993.28
2023-04-21T13:43:50.191Z,100001.09
2023-04-21T13:46:16.897Z,99993.09
2023-04-21T13:48:45.255Z,99989.63
2023-04-21T13:51:11.927Z,100004.63
2023-04-21T13:53:38.590Z,99984.19
2023-04-21T13:56:07.266Z,99990.34
2023-04-21T13:58:36.273Z,99983.75
2023-04-21T14:01:05.341Z,99979.66
2023-04-21T14:03:37.276Z,99975.47
2023-04-21T14:06:07.485Z,99965.75
2023-04-21T14:08:37.286Z,99967.44
2023-04-21T14:11:04.961Z,99972.16
2023-04-21T14:13:41.881Z,99961.56
2023-04-21T14:16:21.943Z,99959.94
2023-04-21T14:18:48.719Z,99970.25
2023-04-21T14:21:15.423Z,99958.53
2023-04-21T14:23:42.299Z,99968.88
2023-04-21T14:26:11.871Z,99958.59
2023-04-21T14:28:38.617Z,99958.56
2023-04-21T14:31:05.915Z,99951.50
2023-04-21T14:33:33.374Z,99939.03
2023-04-21T14:36:08.215Z,99949.91
2023-04-21T14:38:35.806Z,99931.06
2023-04-21T14:41:04.847Z,99932.78
2023-04-21T14:43:34.706Z,99930.59
2023-04-21T14:46:02.308Z,99915.69
2023-04-21T14:48:29.681Z,99918.16
2023-04-21T14:50:59.637Z,99941.16
2023-04-21T14:53:36.272Z,99915.41
2023-04-21T14:56:05.565Z,99915.41
2023-04-21T14:58:32.386Z,99901.84
2023-04-21T15:01:04.252Z,99912.44
2023-04-21T15:03:31.639Z,99915.72
2023-04-21T15:06:02.775Z,99908.66
2023-04-21T15:08:29.651Z,99891.28
2023-04-21T15:10:56.794Z,99888.31
2023-04-21T15:13:23.657Z,99888.34
2023-04-21T15:15:52.203Z,99892.94
2023-04-21T15:18:19.193Z,99888.81
2023-04-21T15:20:46.088Z,99880.72
2023-04-21T15:23:13.070Z,99874.75
2023-04-21T15:25:40.402Z,99871.78
2023-04-21T15:28:10.038Z,99871.00
2023-04-21T15:30:36.910Z,99883.47
2023-04-21T15:33:03.881Z,99869.91
2023-04-21T15:35:30.664Z,99867.44
2023-04-21T15:37:59.693Z,99863.81
2023-04-21T15:40:26.998Z,99865.50
2023-04-21T15:42:53.729Z,99872.56
2023-04-21T15:45:21.571Z,99868.22
2023-04-21T15:47:48.325Z,99870.94
2023-04-21T15:50:15.067Z,99864.91
2023-04-21T15:52:43.413Z,99850.81
2023-04-21T15:55:13.901Z,99851.38
2023-04-21T15:57:40.696Z,99856.22
2023-04-21T16:00:10.275Z,99856.22
2023-04-21T16:02:37.470Z,99840.50
2023-04-21T16:05:04.756Z,99848.34
2023-04-21T16:07:31.965Z,99842.13
2023-04-21T16:10:00.403Z,99837.25
2023-04-21T16:12:27.441Z,99824.22
2023-04-21T16:14:59.562Z,99835.34
2023-04-21T16:17:37.246Z,99829.63
2023-04-21T16:20:05.752Z,99826.06
2023-04-21T16:22:32.545Z,99826.88
2023-04-21T16:25:10.821Z,99820.91
2023-04-21T16:27:46.287Z,99822.53
2023-04-21T16:30:15.690Z,99815.19
2023-04-21T16:32:42.448Z,99815.72
2023-04-21T16:35:10.031Z,99829.81
2023-04-21T16:37:38.301Z,99810.56
2023-04-21T16:40:08.641Z,99814.34
2023-04-21T16:42:36.204Z,99819.22
2023-04-21T16:45:04.670Z,99808.91
2023-04-21T16:47:40.404Z,99808.31
2023-04-21T16:50:08.886Z,99802.41
2023-04-21T16:52:35.551Z,99804.81
2023-04-21T16:55:02.192Z,99809.13
2023-04-21T16:57:29.767Z,99803.69
2023-04-21T16:59:59.309Z,99803.66
2023-04-21T17:02:26.079Z,99809.84
2023-04-21T17:04:52.859Z,99812.84
2023-04-21T17:07:19.537Z,99801.69
2023-04-21T17:09:46.413Z,99809.81
2023-04-21T17:12:13.049Z,99801.69
2023-04-21T17:14:40.606Z,99803.34
2023-04-21T17:17:07.462Z,99801.66
2023-04-21T17:19:34.306Z,99809.41
2023-04-21T17:22:01.165Z,99807.69
2023-04-21T17:24:33.052Z,99797.56
2023-04-21T17:27:05.042Z,99804.75
2023-04-21T17:29:31.949Z,99799.06
2023-04-21T17:32:00.204Z,99792.25
2023-04-21T17:34:26.973Z,99795.69
2023-04-21T17:36:53.756Z,99784.31
2023-04-21T17:39:20.407Z,99793.50
2023-04-21T17:41:47.945Z,99795.88
2023-04-21T17:44:14.536Z,99793.09
2023-04-21T17:46:41.772Z,99786.56
2023-04-21T17:49:10.838Z,99783.47
2023-04-21T17:51:37.565Z,99790.94
2023-04-21T17:54:05.236Z,99786.91
2023-04-21T17:56:31.878Z,99798.84
2023-04-21T17:58:58.582Z,99793.53
2023-04-21T18:01:25.632Z,99793.88
2023-04-21T18:03:56.506Z,99792.03
2023-04-21T18:06:25.630Z,99795.53
2023-04-21T18:08:52.243Z,99796.28
2023-04-21T18:11:18.991Z,99797.03
2023-04-21T18:13:45.581Z,99791.16
2023-04-21T18:16:12.292Z,99796.56
2023-04-21T18:18:39.318Z,99788.34
2023-04-21T18:21:06.077Z,99795.09
2023-04-21T18:23:32.728Z,99801.66
2023-04-21T18:26:04.888Z,99798.19
2023-04-21T18:28:32.034Z,99796.22
2023-04-21T18:30:58.756Z,99799.63
2023-04-21T18:33:25.548Z,99785.31
2023-04-21T18:35:52.442Z,99792.59
2023-04-21T18:38:19.058Z,99797.50
2023-04-21T18:40:47.995Z,99799.44
2023-04-21T18:43:14.878Z,99802.06
2023-04-21T18:45:41.692Z,99805.94
2023-04-21T18:48:08.631Z,99810.13
2023-04-21T18:50:40.842Z,99808.41
2023-04-21T18:53:08.574Z,99808.25
2023-04-21T18:55:36.320Z,99804.34
2023-04-21T18:58:03.214Z,99809.03
2023-04-21T19:00:32.011Z,99810.66
2023-04-21T19:03:02.177Z,99801.19
2023-04-21T19:05:31.114Z,99800.22
2023-04-21T19:07:58.275Z,99801.66
2023-04-21T19:10:25.053Z,99803.72
2023-04-21T19:12:51.766Z,99791.50
2023-04-21T19:15:18.608Z,99799.38
2023-04-21T19:17:45.432Z,99798.09
2023-04-21T19:20:12.624Z,99803.31
2023-04-21T19:22:39.405Z,99789.06
2023-04-21T19:25:07.151Z,99795.38
2023-04-21T19:27:34.134Z,99793.88
2023-04-21T19:30:01.053Z,99791.13
2023-04-21T19:32:28.030Z,99791.59
2023-04-21T19:34:54.960Z,99805.69
2023-04-21T19:37:21.810Z,99805.84
2023-04-21T19:39:48.486Z,99801.00
2023-04-21T19:42:15.083Z,99804.84
2023-04-21T19:44:41.785Z,99804.59
2023-04-21T19:47:08.491Z,99805.16
2023-04-21T19:49:35.591Z,99800.38
2023-04-21T19:52:02.320Z,99800.13
2023-04-21T19:54:28.988Z,99802.97
2023-04-21T19:56:55.696Z,99790.78
2023-04-21T19:59:22.350Z,99796.78
2023-04-21T20:01:48.993Z,99793.22
2023-04-21T20:04:16.513Z,99797.06
2023-04-21T20:06:43.921Z,99799.28
2023-04-21T20:09:11.028Z,99797.00
2023-04-21T20:11:40.332Z,99793.38
2023-04-21T20:14:07.034Z,99791.78
2023-04-21T20:16:34.398Z,99792.25
2023-04-21T20:19:01.171Z,99791.34
2023-04-21T20:21:27.958Z,99788.13
2023-04-21T20:23:54.652Z,99788.22
2023-04-21T20:26:21.435Z,99783.34
2023-04-21T20:28:48.115Z,99787.78
2023-04-21T20:31:15.223Z,99797.25
2023-04-21T20:33:41.913Z,99794.31
2023-04-21T20:36:08.630Z,99791.28
2023-04-21T20:38:35.701Z,99789.50
2023-04-21T20:41:03.336Z,99792.84
2023-04-21T20:43:33.203Z,99791.38
2023-04-21T20:46:03.491Z,99784.41
2023-04-21T20:48:30.543Z,99789.25
2023-04-21T20:50:57.290Z,99785.94
2023-04-21T20:53:24.337Z,99782.88
2023-04-21T20:55:51.227Z,99788.59
2023-04-21T20:58:18.006Z,99779.59
2023-04-21T21:00:44.799Z,99785.13
2023-04-21T21:03:13.737Z,99785.25
2023-04-21T21:05:40.895Z,99774.69
2023-04-21T21:08:07.863Z,99787.81
2023-04-21T21:10:35.357Z,99780.19
2023-04-21T21:13:02.077Z,99780.91
2023-04-21T21:15:30.482Z,99786.78
2023-04-21T21:17:57.564Z,99786.81
2023-04-21T21:20:24.425Z,99777.44
2023-04-21T21:22:51.115Z,99777.59
2023-04-21T21:25:17.831Z,99772.16
2023-04-21T21:27:44.523Z,99776.97
2023-04-21T21:30:11.418Z,99770.44
2023-04-21T21:32:38.211Z,99774.78
2023-04-21T21:35:06.909Z,99767.84
2023-04-21T21:37:33.658Z,99761.19
2023-04-21T21:40:00.439Z,99760.38
2023-04-21T21:42:27.059Z,99750.78
2023-04-21T21:44:53.857Z,99764.94
2023-04-21T21:47:20.844Z,99763.91
2023-04-21T21:49:47.559Z,99759.66
2023-04-21T21:52:15.091Z,99763.44
2023-04-21T21:54:41.684Z,99759.34
2023-04-21T21:57:08.636Z,99758.50
2023-04-21T21:59:35.546Z,99756.16
2023-04-21T22:02:02.345Z,99760.03
2023-04-21T22:04:29.088Z,99749.66
2023-04-21T22:06:55.805Z,99753.97
2023-04-21T22:09:22.489Z,99759.00
2023-04-21T22:11:49.173Z,99760.97
2023-04-21T22:14:23.486Z,99761.56
2023-04-21T22:16:53.040Z,99756.41
2023-04-21T22:19:20.414Z,99758.94
2023-04-21T22:21:47.476Z,99750.91
2023-04-21T22:24:14.704Z,99754.31
2023-04-21T22:26:41.970Z,99753.03
2023-04-21T22:29:08.607Z,99756.91
2023-04-21T22:31:35.475Z,99753.53
2023-04-21T22:34:02.245Z,99760.72
2023-04-21T22:36:28.880Z,99761.66
2023-04-21T22:38:55.575Z,99756.28
2023-04-21T22:41:22.684Z,99764.81
2023-04-21T22:43:49.427Z,99766.69
2023-04-21T22:46:16.140Z,99766.47
2023-04-21T22:48:46.389Z,99760.84
2023-04-21T22:51:14.386Z,99763.41
2023-04-21T22:53:41.131Z,99758.13
2023-04-21T22:56:07.911Z,99754.28
2023-04-21T22:58:34.463Z,99751.56
2023-04-21T23:01:01.877Z,99749.94
2023-04-21T23:03:28.732Z,99751.09
2023-04-21T23:05:55.708Z,99748.19
2023-04-21T23:08:22.388Z,99756.06
2023-04-21T23:10:49.036Z,99761.56
2023-04-21T23:13:15.678Z,99768.00
2023-04-21T23:15:42.334Z,99770.38
2023-04-21T23:18:09.031Z,99768.41
2023-04-21T23:20:35.858Z,99761.66
2023-04-21T23:23:02.528Z,99758.00
2023-04-21T23:25:29.210Z,99754.00
2023-04-21T23:27:55.773Z,99750.09
2023-04-21T23:30:22.399Z,99744.00
2023-04-21T23:32:49.119Z,99745.84
2023-04-21T23:35:15.938Z,99741.41
2023-04-21T23:37:42.690Z,99744.28
2023-04-21T23:40:12.557Z,99745.06
2023-04-21T23:42:39.530Z,99748.63
2023-04-21T23:45:06.880Z,99749.97
2023-04-21T23:47:33.877Z,99750.91
2023-04-21T23:50:00.651Z,99748.50
2023-04-21T23:52:27.377Z,99753.84
2023-04-21T23:54:54.079Z,99757.16
2023-04-21T23:57:20.935Z,99755.81
2023-04-21T23:59:47.836Z,99753.06
